Eureka, IL

4:25 PM CDT on July 30, 2016 (GMT -0500)
Webster Ave. | | Change Station

Elev 755 ft 40.73 °N, 89.27 °W | Updated 2 minutes ago

Overcast
Overcast
79.3 °F
Feels Like 83 °F
N
9.0
Wind Variable Wind from NE
Gusts 10.0 mph

Today
High -- | Low -- °F
--% Chance of Precip.
Yesterday
High -- | Low -- °F
Precip. -- in
Pressure 29.96 in
Visibility 10.0 miles
Clouds Scattered Clouds 3000 ft
Mostly Cloudy 4400 ft
Overcast 7000 ft
Heat Index 83 °F
Dew Point 72 °F
Humidity 78%
Rainfall 0.00 in
Snow Depth Not available.
5:52 AM 8:14 PM
Waning Crescent, 11% visible
METAR KC75 302115Z AUTO 09006KT 10SM SCT030 BKN044 OVC070 24/21 A2996 RMK AO2 T02390208
Pressure 29.96 in
Visibility 10.0 miles
Clouds Scattered Clouds 3000 ft
Mostly Cloudy 4400 ft
Overcast 7000 ft
Heat Index 83 °F
Dew Point 72 °F
Humidity 78%
Rainfall 0.00 in
Snow Depth Not available.
5:52 AM 8:14 PM
Waning Crescent, 11% visible
METAR KC75 302115Z AUTO 09006KT 10SM SCT030 BKN044 OVC070 24/21 A2996 RMK AO2 T02390208

10-Day Weather Forecast

Almanac

Astronomy

Jul. 30, 2016 Rise Set
Actual Time
Civil Twilight
Nautical Twilight
Astronomical Twilight
Moon
Length of Visible Light
Length of Day
Tomorrow will be .
, % of the Moon is Illuminated

Today's Extremes

State Highs State Lows

Community

WunderPhotos

Upload Photos

1,928,648 photos uploaded!

WunderBlog® & News

Nearby

Air Quality

  Air Quality AQ Index Pollutant
Not available.

Snow Depth

Station Depth Elevation

Earthquake Activity

City Distance Mag. Time & Date
Minimum magnitude displayed is 2.5.

Coastal Water Temperatures

Place Temperature

Stations

Nearby Weather Stations

Station Location Temp. Windchill Dew Point Humidity Wind Precip. Elev Updated Type
                   

Watches & Warnings

There are currently no watches in effect.